createdAt,value
2019-04-04T00:00:49.054Z,3.20
2019-04-04T00:03:51.854Z,2.80
2019-04-04T00:06:35.622Z,2.90
2019-04-04T00:09:25.361Z,2.70
2019-04-04T00:12:08.036Z,2.80
2019-04-04T00:14:58.330Z,2.70
2019-04-04T00:17:40.557Z,3.07
2019-04-04T00:20:31.878Z,3.00
2019-04-04T00:23:14.322Z,2.90
2019-04-04T00:26:04.129Z,3.37
2019-04-04T00:28:53.844Z,3.37
2019-04-04T00:31:36.378Z,3.60
2019-04-04T00:34:41.442Z,3.40
2019-04-04T00:37:24.160Z,3.17
2019-04-04T00:40:13.814Z,3.43
2019-04-04T00:42:56.339Z,3.63
2019-04-04T00:45:46.084Z,4.00
2019-04-04T00:48:28.790Z,3.77
2019-04-04T00:51:18.450Z,3.50
2019-04-04T00:54:00.631Z,3.40
2019-04-04T00:56:50.252Z,3.53
2019-04-04T00:59:32.834Z,3.77
2019-04-04T01:02:22.503Z,3.80
2019-04-04T01:05:04.990Z,4.00
2019-04-04T01:07:54.686Z,3.77
2019-04-04T01:10:36.958Z,3.60
2019-04-04T01:13:27.709Z,3.40
2019-04-04T01:16:10.676Z,3.80
2019-04-04T01:19:00.388Z,4.00
2019-04-04T01:21:43.364Z,3.90
2019-04-04T01:24:52.155Z,4.10
2019-04-04T01:27:35.033Z,5.00
2019-04-04T01:30:25.633Z,6.37
2019-04-04T01:33:07.977Z,6.30
2019-04-04T01:35:57.647Z,5.40
2019-04-04T01:38:40.063Z,4.53
2019-04-04T01:41:29.703Z,4.47
2019-04-04T01:44:12.034Z,3.77
2019-04-04T01:47:01.789Z,4.43
2019-04-04T01:49:51.901Z,4.07
2019-04-04T01:52:36.738Z,3.90
2019-04-04T01:55:18.819Z,3.47
2019-04-04T01:58:10.107Z,3.50
2019-04-04T02:01:00.108Z,3.13
2019-04-04T02:03:42.493Z,3.00
2019-04-04T02:06:32.271Z,3.60
2019-04-04T02:09:22.019Z,3.97
2019-04-04T02:12:11.814Z,3.43
2019-04-04T02:15:01.611Z,3.50
2019-04-04T02:17:52.915Z,3.20
2019-04-04T02:20:35.257Z,2.93
2019-04-04T02:23:25.147Z,2.93
2019-04-04T02:26:14.844Z,3.17
2019-04-04T02:29:04.565Z,3.70
2019-04-04T02:31:53.242Z,3.97
2019-04-04T02:34:42.136Z,3.63
2019-04-04T02:37:24.446Z,4.17
2019-04-04T02:40:14.226Z,3.80
2019-04-04T02:42:57.466Z,3.83
2019-04-04T02:45:47.299Z,3.40
2019-04-04T02:48:29.847Z,3.27
2019-04-04T02:51:19.548Z,2.97
2019-04-04T02:54:03.849Z,2.90
2019-04-04T02:56:53.525Z,2.87
2019-04-04T02:59:35.980Z,3.10
2019-04-04T03:02:18.913Z,2.90
2019-04-04T03:05:08.771Z,2.70
2019-04-04T03:08:03.001Z,2.40
2019-04-04T03:10:42.921Z,2.50
2019-04-04T03:13:32.737Z,2.57
2019-04-04T03:16:23.266Z,2.13
2019-04-04T03:19:13.073Z,2.60
2019-04-04T03:22:02.972Z,2.50
2019-04-04T03:24:52.869Z,2.33
2019-04-04T03:27:42.716Z,2.87
2019-04-04T03:33:35.591Z,2.40
2019-04-04T03:36:17.572Z,3.10
2019-04-04T03:41:54.553Z,2.63
2019-04-04T03:44:44.273Z,2.90
2019-04-04T03:47:28.532Z,3.37
2019-04-04T03:50:18.246Z,3.20
2019-04-04T03:53:00.589Z,2.87
2019-04-04T03:55:50.315Z,3.23
2019-04-04T03:58:40.206Z,3.00
2019-04-04T04:01:29.905Z,3.00
2019-04-04T04:04:12.116Z,2.80
2019-04-04T04:10:02.800Z,2.70
2019-04-04T04:12:52.533Z,3.27
2019-04-04T04:15:35.455Z,3.00
2019-04-04T04:18:25.148Z,2.40
2019-04-04T04:21:10.797Z,2.80
2019-04-04T04:23:51.309Z,2.80
2019-04-04T04:26:42.081Z,2.70
2019-04-04T04:29:24.949Z,2.47
2019-04-04T04:32:21.234Z,2.90
2019-04-04T04:35:00.482Z,2.80
2019-04-04T04:40:53.333Z,2.90
2019-04-04T04:43:37.791Z,2.90
2019-04-04T04:46:27.537Z,2.90
2019-04-04T04:49:17.278Z,3.23
2019-04-04T04:52:26.140Z,3.13
2019-04-04T04:55:15.915Z,3.43
2019-04-04T04:58:09.758Z,3.00
2019-04-04T05:00:49.520Z,3.10
2019-04-04T05:03:39.228Z,3.20
2019-04-04T05:06:29.012Z,3.40
2019-04-04T05:09:18.748Z,3.57
2019-04-04T05:12:08.587Z,4.40
2019-04-04T05:14:59.220Z,5.33
2019-04-04T05:17:42.600Z,5.03
2019-04-04T05:20:32.373Z,5.30
2019-04-04T05:23:22.190Z,5.83
2019-04-04T05:26:11.961Z,5.70
2019-04-04T05:29:01.701Z,5.63
2019-04-04T05:31:44.483Z,6.70
2019-04-04T05:34:34.259Z,6.60
2019-04-04T05:37:16.631Z,6.77
2019-04-04T05:40:26.996Z,7.00
2019-04-04T05:43:17.046Z,7.23
2019-04-04T05:46:06.784Z,7.40
2019-04-04T05:48:59.381Z,7.83
2019-04-04T05:51:40.912Z,7.17
2019-04-04T05:54:30.769Z,7.13
2019-04-04T05:57:13.277Z,5.87
2019-04-04T06:00:03.309Z,5.70
2019-04-04T06:02:53.047Z,5.90
2019-04-04T06:05:35.548Z,5.13
2019-04-04T06:08:25.285Z,5.30
2019-04-04T06:11:07.525Z,4.60
2019-04-04T06:14:16.337Z,4.53
2019-04-04T06:16:46.999Z,4.47
2019-04-04T06:19:36.715Z,5.13
2019-04-04T06:22:19.094Z,4.57
2019-04-04T06:25:10.396Z,4.30
2019-04-04T06:27:53.287Z,4.27
2019-04-04T06:30:43.887Z,4.40
2019-04-04T06:33:26.811Z,3.97
2019-04-04T06:36:17.828Z,3.47
2019-04-04T06:39:01.073Z,3.60
2019-04-04T06:41:50.819Z,4.33
2019-04-04T06:44:34.671Z,7.37
2019-04-04T06:47:25.522Z,6.47
2019-04-04T06:50:08.492Z,4.03
2019-04-04T06:52:58.356Z,3.20
2019-04-04T06:55:40.845Z,2.60
2019-04-04T07:00:59.523Z,4.47
2019-04-04T07:03:49.307Z,2.90
2019-04-04T07:06:41.671Z,2.97
2019-04-04T07:09:23.552Z,2.80
2019-04-04T07:14:55.573Z,2.53
2019-04-04T07:17:45.281Z,2.53
2019-04-04T07:20:28.539Z,2.40
2019-04-04T07:23:18.396Z,2.53
2019-04-04T07:26:01.057Z,2.20
2019-04-04T07:31:51.759Z,2.20
2019-04-04T07:34:44.968Z,2.20
2019-04-04T07:37:25.493Z,2.43
2019-04-04T07:40:15.291Z,2.30
2019-04-04T07:42:58.283Z,2.70
2019-04-04T07:45:48.026Z,2.30
2019-04-04T07:48:30.044Z,2.70
2019-04-04T07:51:19.739Z,2.60
2019-04-04T07:54:02.338Z,2.50
2019-04-04T07:59:53.212Z,2.60
2019-04-04T08:02:42.937Z,3.00
2019-04-04T08:05:25.157Z,2.73
2019-04-04T08:08:14.877Z,2.10
2019-04-04T08:10:58.402Z,1.97
2019-04-04T08:13:48.102Z,2.10
2019-04-04T08:16:31.010Z,1.93
2019-04-04T08:19:20.712Z,2.67
2019-04-04T08:22:02.780Z,3.00
2019-04-04T08:24:52.490Z,2.30
2019-04-04T08:27:35.184Z,2.43
2019-04-04T08:30:24.982Z,2.00
2019-04-04T08:33:07.070Z,2.13
2019-04-04T08:36:05.829Z,1.83
2019-04-04T08:38:41.220Z,2.40
2019-04-04T08:41:30.922Z,1.70
2019-04-04T08:44:13.476Z,1.93
2019-04-04T08:47:03.328Z,1.93
2019-04-04T08:49:46.298Z,2.50
2019-04-04T08:52:36.046Z,2.67
2019-04-04T08:55:25.831Z,2.40
2019-04-04T08:58:15.942Z,2.40
2019-04-04T09:01:06.177Z,2.70
2019-04-04T09:03:55.974Z,2.90
2019-04-04T09:06:45.758Z,2.70
2019-04-04T09:09:35.568Z,2.80
2019-04-04T09:12:25.369Z,2.67
2019-04-04T09:15:15.370Z,2.60
2019-04-04T09:18:05.148Z,2.47
2019-04-04T09:20:55.037Z,2.00
2019-04-04T09:23:44.778Z,2.10
2019-04-04T09:26:34.561Z,2.40
2019-04-04T09:29:24.328Z,1.90
2019-04-04T09:32:14.120Z,2.57
2019-04-04T09:34:56.532Z,2.33
2019-04-04T09:37:46.332Z,2.30
2019-04-04T09:40:36.241Z,2.50
2019-04-04T09:43:25.936Z,2.30
2019-04-04T09:46:08.090Z,2.30
2019-04-04T09:48:57.857Z,2.40
2019-04-04T09:51:47.620Z,2.30
2019-04-04T09:57:30.545Z,2.33
2019-04-04T10:03:31.493Z,2.10
2019-04-04T10:06:13.427Z,1.73
2019-04-04T10:12:06.210Z,2.20
2019-04-04T10:14:55.963Z,2.20
2019-04-04T10:17:39.288Z,2.43
2019-04-04T10:20:28.989Z,2.10
2019-04-04T10:23:13.189Z,2.40
2019-04-04T10:26:03.345Z,1.83
2019-04-04T10:28:53.613Z,4.00
2019-04-04T10:31:37.416Z,2.50
2019-04-04T10:34:28.449Z,2.37
2019-04-04T10:37:11.555Z,2.13
2019-04-04T10:40:01.269Z,2.33
2019-04-04T10:42:43.589Z,2.43
2019-04-04T10:45:33.315Z,2.40
2019-04-04T10:48:15.909Z,2.63
2019-04-04T10:51:05.641Z,2.67
2019-04-04T10:53:48.131Z,2.80
2019-04-04T10:56:37.830Z,2.93
2019-04-04T10:59:20.299Z,2.70
2019-04-04T11:01:50.966Z,2.73
2019-04-04T11:04:40.681Z,2.53
2019-04-04T11:07:22.939Z,2.57
2019-04-04T11:10:12.894Z,2.30
2019-04-04T11:13:03.083Z,2.40
2019-04-04T11:15:46.967Z,2.40
2019-04-04T11:18:36.694Z,2.63
2019-04-04T11:21:26.668Z,3.40
2019-04-04T11:24:16.435Z,2.90
2019-04-04T11:27:06.285Z,3.13
2019-04-04T11:29:49.208Z,2.87
2019-04-04T11:32:38.993Z,3.13
2019-04-04T11:35:28.797Z,2.97
2019-04-04T11:38:18.587Z,3.37
2019-04-04T11:41:08.350Z,3.53
2019-04-04T11:43:58.167Z,2.13
2019-04-04T11:46:47.996Z,2.53
2019-04-04T11:49:37.756Z,2.70
2019-04-04T11:52:27.667Z,2.03
2019-04-04T11:55:17.410Z,2.03
2019-04-04T11:58:07.163Z,1.97
2019-04-04T12:03:55.006Z,2.20
2019-04-04T12:06:44.718Z,2.43
2019-04-04T12:09:34.440Z,2.43
2019-04-04T12:12:18.720Z,2.47
2019-04-04T12:15:01.362Z,2.13
2019-04-04T12:17:50.462Z,2.03
2019-04-04T12:20:43.051Z,2.00
2019-04-04T12:23:25.692Z,2.00
2019-04-04T12:26:08.780Z,2.13
2019-04-04T12:28:58.560Z,2.10
2019-04-04T12:32:07.100Z,1.93
2019-04-04T12:34:49.858Z,2.90
2019-04-04T12:37:39.621Z,2.00
2019-04-04T12:40:29.550Z,2.20
2019-04-04T12:43:19.353Z,1.90
2019-04-04T12:49:13.970Z,2.50
2019-04-04T12:51:55.947Z,2.43
2019-04-04T12:54:45.676Z,2.80
2019-04-04T12:57:28.092Z,2.93
2019-04-04T13:00:17.846Z,3.20
2019-04-04T13:02:59.784Z,2.93
2019-04-04T13:05:49.552Z,3.57
2019-04-04T13:08:39.317Z,4.13
2019-04-04T13:11:29.074Z,4.33
2019-04-04T13:17:13.371Z,4.70
2019-04-04T13:20:03.163Z,4.70
2019-04-04T13:23:12.053Z,4.37
2019-04-04T13:26:01.759Z,5.40
2019-04-04T13:28:51.550Z,4.37
2019-04-04T13:31:41.337Z,4.17
2019-04-04T13:34:31.136Z,3.60
2019-04-04T13:37:20.865Z,3.40
2019-04-04T13:40:10.591Z,3.57
2019-04-04T13:42:53.558Z,3.40
2019-04-04T13:45:43.244Z,2.83
2019-04-04T13:48:33.249Z,2.50
2019-04-04T13:51:25.444Z,1.97
2019-04-04T13:54:07.189Z,1.60
2019-04-04T13:56:56.939Z,1.10
2019-04-04T13:59:39.131Z,1.03
2019-04-04T14:02:28.866Z,1.23
2019-04-04T14:05:14.151Z,1.50
2019-04-04T14:07:44.228Z,1.67
2019-04-04T14:10:28.306Z,4.00
2019-04-04T14:13:17.989Z,1.77
2019-04-04T14:16:00.993Z,2.10
2019-04-04T14:18:51.210Z,2.40
2019-04-04T14:21:36.508Z,2.20
2019-04-04T14:24:26.414Z,2.67
2019-04-04T14:27:16.435Z,2.70
2019-04-04T14:33:23.949Z,2.33
2019-04-04T14:36:13.999Z,2.03
2019-04-04T14:39:04.163Z,1.77
2019-04-04T14:41:47.145Z,1.90
2019-04-04T14:44:37.262Z,2.47
2019-04-04T14:47:27.188Z,2.70
2019-04-04T14:50:17.027Z,2.43
2019-04-04T14:52:59.549Z,2.13
2019-04-04T14:55:49.730Z,1.60
2019-04-04T14:58:32.744Z,2.43
2019-04-04T15:01:22.840Z,3.00
2019-04-04T15:04:06.901Z,2.17
2019-04-04T15:06:57.142Z,2.33
2019-04-04T15:09:39.779Z,2.00
2019-04-04T15:12:29.810Z,2.20
2019-04-04T15:15:15.066Z,2.80
2019-04-04T15:18:06.420Z,2.70
2019-04-04T15:20:49.726Z,2.33
2019-04-04T15:23:40.576Z,3.07
2019-04-04T15:26:22.221Z,2.27
2019-04-04T15:32:09.288Z,2.80
2019-04-04T15:34:52.305Z,2.57
2019-04-04T15:37:42.219Z,2.40
2019-04-04T15:40:32.196Z,2.47
2019-04-04T15:43:22.512Z,2.27
2019-04-04T15:46:12.341Z,2.60
2019-04-04T15:49:02.345Z,2.60
2019-04-04T15:51:52.302Z,2.07
2019-04-04T15:54:43.014Z,2.20
2019-04-04T15:57:32.828Z,2.03
2019-04-04T16:00:22.610Z,2.10
2019-04-04T16:03:12.350Z,2.30
2019-04-04T16:06:02.074Z,2.33
2019-04-04T16:08:44.297Z,2.53
2019-04-04T16:11:30.816Z,2.37
2019-04-04T16:14:12.904Z,2.33
2019-04-04T16:17:02.623Z,2.20
2019-04-04T16:20:11.490Z,2.00
2019-04-04T16:23:01.272Z,2.00
2019-04-04T16:28:54.814Z,2.23
2019-04-04T16:31:37.330Z,1.97
2019-04-04T16:34:27.122Z,2.10
2019-04-04T16:36:57.940Z,1.90
2019-04-04T16:39:47.724Z,2.00
2019-04-04T16:42:31.850Z,2.03
2019-04-04T16:45:21.569Z,1.93
2019-04-04T16:48:03.997Z,2.10
2019-04-04T16:53:57.036Z,3.20
2019-04-04T16:56:28.615Z,3.00
2019-04-04T16:59:18.469Z,2.90
2019-04-04T17:02:01.189Z,2.90
2019-04-04T17:04:50.973Z,2.73
2019-04-04T17:07:40.762Z,3.33
2019-04-04T17:10:30.525Z,3.50
2019-04-04T17:13:20.349Z,3.13
2019-04-04T17:16:03.184Z,3.47
2019-04-04T17:19:05.714Z,3.40
2019-04-04T17:21:51.097Z,3.70
2019-04-04T17:27:40.491Z,4.10
2019-04-04T17:30:30.334Z,3.80
2019-04-04T17:33:20.771Z,3.90
2019-04-04T17:36:04.029Z,4.30
2019-04-04T17:38:55.021Z,4.33
2019-04-04T17:41:41.853Z,4.00
2019-04-04T17:44:24.050Z,4.23
2019-04-04T17:47:13.852Z,4.60
2019-04-04T17:49:55.971Z,4.80
2019-04-04T17:52:39.152Z,4.53
2019-04-04T17:55:25.840Z,4.30
2019-04-04T17:58:15.404Z,4.43
2019-04-04T18:00:58.511Z,4.60
2019-04-04T18:03:48.709Z,4.50
2019-04-04T18:06:40.716Z,4.70
2019-04-04T18:09:31.695Z,4.90
2019-04-04T18:12:16.908Z,5.90
2019-04-04T18:15:25.378Z,6.23
2019-04-04T18:18:08.198Z,6.27
2019-04-04T18:20:57.964Z,6.60
2019-04-04T18:23:40.931Z,7.80
2019-04-04T18:26:30.697Z,7.40
2019-04-04T18:29:14.211Z,6.40
2019-04-04T18:31:44.969Z,6.30
2019-04-04T18:34:34.963Z,7.10
2019-04-04T18:37:17.542Z,5.60
2019-04-04T18:40:07.895Z,6.13
2019-04-04T18:42:57.733Z,5.80
2019-04-04T18:45:47.655Z,6.60
2019-04-04T18:51:42.567Z,6.30
2019-04-04T18:54:24.600Z,6.60
2019-04-04T18:57:14.311Z,6.60
2019-04-04T18:59:57.157Z,6.30
2019-04-04T19:02:59.868Z,5.83
2019-04-04T19:05:43.030Z,6.67
2019-04-04T19:08:51.842Z,6.40
2019-04-04T19:11:34.397Z,7.07
2019-04-04T19:14:24.138Z,6.80
2019-04-04T19:17:06.541Z,6.23
2019-04-04T19:19:56.290Z,6.53
2019-04-04T19:22:39.557Z,6.37
2019-04-04T19:25:29.638Z,6.40
2019-04-04T19:28:15.765Z,5.40
2019-04-04T19:34:09.524Z,6.03
2019-04-04T19:36:59.314Z,6.37
2019-04-04T19:39:41.958Z,6.37
2019-04-04T19:42:31.739Z,6.10
2019-04-04T19:45:14.275Z,6.33
2019-04-04T19:48:04.050Z,6.63
2019-04-04T19:50:34.978Z,6.50
2019-04-04T19:53:25.098Z,7.10
2019-04-04T19:56:07.754Z,6.63
2019-04-04T19:58:57.844Z,6.37
2019-04-04T20:01:40.390Z,6.27
2019-04-04T20:04:30.329Z,6.77
2019-04-04T20:07:13.747Z,6.77
2019-04-04T20:13:30.399Z,6.40
2019-04-04T20:16:12.442Z,7.67
2019-04-04T20:18:44.178Z,7.20
2019-04-04T20:21:33.929Z,7.60
2019-04-04T20:27:27.299Z,7.03
2019-04-04T20:30:29.690Z,7.20
2019-04-04T20:33:12.195Z,7.07
2019-04-04T20:36:14.888Z,7.63
2019-04-04T20:38:58.500Z,7.00
2019-04-04T20:41:48.569Z,6.93
2019-04-04T20:44:32.512Z,6.90
2019-04-04T20:47:22.752Z,6.83
2019-04-04T20:50:05.433Z,7.07
2019-04-04T20:52:55.266Z,7.07
2019-04-04T20:58:28.808Z,7.77
2019-04-04T21:01:18.589Z,8.23
2019-04-04T21:04:01.122Z,7.90
2019-04-04T21:06:50.895Z,7.90
2019-04-04T21:09:33.013Z,8.40
2019-04-04T21:12:22.765Z,8.40
2019-04-04T21:15:05.387Z,9.23
2019-04-04T21:18:15.955Z,8.53
2019-04-04T21:20:42.214Z,9.40
2019-04-04T21:23:32.041Z,9.73
2019-04-04T21:26:18.661Z,10.10
2019-04-04T21:29:09.680Z,9.60
2019-04-04T21:31:54.123Z,11.33
2019-04-04T21:37:48.835Z,9.43
2019-04-04T21:40:31.199Z,9.67
2019-04-04T21:43:21.125Z,10.33
2019-04-04T21:46:10.884Z,9.90
2019-04-04T21:51:56.689Z,8.80
2019-04-04T21:54:46.428Z,9.10
2019-04-04T21:57:28.744Z,8.13
2019-04-04T22:00:42.264Z,8.00
2019-04-04T22:03:24.891Z,8.07
2019-04-04T22:06:14.602Z,8.63
2019-04-04T22:08:56.757Z,8.37
2019-04-04T22:11:46.469Z,7.90
2019-04-04T22:14:29.045Z,8.40
2019-04-04T22:17:18.859Z,7.93
2019-04-04T22:20:03.290Z,7.87
2019-04-04T22:22:53.055Z,8.13
2019-04-04T22:25:37.312Z,7.97
2019-04-04T22:28:27.078Z,8.47
2019-04-04T22:31:11.227Z,8.43
2019-04-04T22:34:01.016Z,8.37
2019-04-04T22:36:43.603Z,9.33
2019-04-04T22:42:36.955Z,10.47
2019-04-04T22:45:19.906Z,9.60
2019-04-04T22:48:09.640Z,9.43
2019-04-04T22:50:59.363Z,9.47
2019-04-04T22:56:52.238Z,9.93
2019-04-04T22:59:34.403Z,9.80
2019-04-04T23:02:24.021Z,10.30
2019-04-04T23:05:07.364Z,10.57
2019-04-04T23:07:57.033Z,10.33
2019-04-04T23:10:38.970Z,11.03
2019-04-04T23:13:28.758Z,11.17
2019-04-04T23:16:11.480Z,10.63
2019-04-04T23:19:01.200Z,11.47
2019-04-04T23:21:45.339Z,11.17
2019-04-04T23:24:35.037Z,12.10
2019-04-04T23:27:17.494Z,11.07
2019-04-04T23:33:11.991Z,11.03
2019-04-04T23:36:01.717Z,10.60
2019-04-04T23:38:44.555Z,11.43
2019-04-04T23:41:34.285Z,13.20
2019-04-04T23:44:16.792Z,14.10
2019-04-04T23:47:06.478Z,16.77
2019-04-04T23:49:48.694Z,19.67
2019-04-04T23:52:38.438Z,20.73
2019-04-04T23:55:21.872Z,22.70
2019-04-04T23:58:11.626Z,24.97
